createdAt,value
2018-12-06T00:01:58.821Z,13.60
2018-12-06T00:06:54.849Z,13.33
2018-12-06T00:11:50.989Z,13.30
2018-12-06T00:16:52.987Z,13.30
2018-12-06T00:21:49.020Z,14.07
2018-12-06T00:26:45.063Z,13.70
2018-12-06T00:31:41.088Z,14.53
2018-12-06T00:36:37.144Z,12.83
2018-12-06T00:41:33.342Z,14.37
2018-12-06T00:46:29.367Z,13.80
2018-12-06T00:51:25.401Z,13.57
2018-12-06T00:56:21.434Z,13.23
2018-12-06T01:01:17.567Z,13.30
2018-12-06T01:06:13.623Z,14.27
2018-12-06T01:11:09.625Z,12.27
2018-12-06T01:16:05.657Z,12.30
2018-12-06T01:21:01.802Z,13.53
2018-12-06T01:25:57.939Z,13.77
2018-12-06T01:30:53.990Z,14.60
2018-12-06T01:35:50.018Z,13.73
2018-12-06T01:40:46.234Z,13.17
2018-12-06T01:45:42.378Z,14.63
2018-12-06T01:50:38.405Z,14.13
2018-12-06T01:55:34.425Z,14.40
2018-12-06T02:00:30.566Z,14.60
2018-12-06T02:05:26.607Z,15.07
2018-12-06T02:10:22.648Z,15.87
2018-12-06T02:15:18.665Z,16.20
2018-12-06T02:20:14.719Z,15.77
2018-12-06T02:25:11.738Z,15.47
2018-12-06T02:30:07.899Z,14.47
2018-12-06T02:35:04.061Z,15.70
2018-12-06T02:40:00.086Z,14.90
2018-12-06T02:44:56.133Z,16.60
2018-12-06T02:49:52.162Z,16.80
2018-12-06T02:54:48.986Z,15.47
2018-12-06T02:59:45.697Z,16.70
2018-12-06T03:04:42.392Z,16.50
2018-12-06T03:09:38.545Z,16.23
2018-12-06T03:14:34.629Z,15.83
2018-12-06T03:19:30.658Z,17.67
2018-12-06T03:24:27.634Z,16.30
2018-12-06T03:29:23.680Z,15.60
2018-12-06T03:34:19.718Z,17.70
2018-12-06T03:39:15.781Z,17.17
2018-12-06T03:44:11.800Z,17.73
2018-12-06T03:49:07.825Z,16.40
2018-12-06T03:54:04.996Z,15.27
2018-12-06T03:59:01.050Z,15.97
2018-12-06T04:03:57.094Z,16.60
2018-12-06T04:08:53.143Z,16.47
2018-12-06T04:13:49.161Z,18.30
2018-12-06T04:18:45.197Z,16.33
2018-12-06T04:23:41.226Z,16.27
2018-12-06T04:28:37.296Z,14.67
2018-12-06T04:33:33.308Z,17.40
2018-12-06T04:38:29.327Z,16.00
2018-12-06T04:43:25.419Z,17.70
2018-12-06T04:48:22.185Z,17.40
2018-12-06T04:53:18.574Z,16.50
2018-12-06T04:58:14.592Z,16.77
2018-12-06T05:03:10.593Z,15.80
2018-12-06T05:08:06.637Z,15.97
2018-12-06T05:13:02.661Z,16.37
2018-12-06T05:17:58.695Z,15.70
2018-12-06T05:22:54.702Z,16.33
2018-12-06T05:27:50.727Z,16.20
2018-12-06T05:32:46.737Z,15.70
2018-12-06T05:37:42.777Z,16.30
2018-12-06T05:42:38.802Z,15.67
2018-12-06T05:47:34.826Z,14.93
2018-12-06T05:52:30.870Z,16.40
2018-12-06T05:57:26.933Z,15.47
2018-12-06T06:02:23.161Z,15.87
2018-12-06T06:07:19.173Z,14.97
2018-12-06T06:12:15.185Z,15.20
2018-12-06T06:17:11.318Z,15.50
2018-12-06T06:22:07.335Z,15.57
2018-12-06T06:27:03.370Z,16.50
2018-12-06T06:31:59.390Z,15.30
2018-12-06T06:36:55.413Z,15.37
2018-12-06T06:41:51.499Z,15.80
2018-12-06T06:46:47.572Z,15.93
2018-12-06T06:51:43.608Z,17.60
2018-12-06T06:56:39.642Z,16.20
2018-12-06T07:01:35.676Z,17.40
2018-12-06T07:06:31.891Z,16.57
2018-12-06T07:11:28.027Z,16.60
2018-12-06T07:16:24.115Z,15.90
2018-12-06T07:21:20.160Z,17.00
2018-12-06T07:26:16.227Z,16.20
2018-12-06T07:31:12.306Z,17.73
2018-12-06T07:36:08.326Z,16.00
2018-12-06T07:41:04.549Z,16.30
2018-12-06T07:46:06.623Z,16.77
2018-12-06T07:51:02.670Z,15.20
2018-12-06T07:55:58.729Z,16.70
2018-12-06T08:00:54.815Z,17.73
2018-12-06T08:05:50.958Z,16.40
2018-12-06T08:10:47.006Z,18.03
2018-12-06T08:15:43.218Z,16.80
2018-12-06T08:20:39.252Z,17.50
2018-12-06T08:25:35.270Z,16.97
2018-12-06T08:30:31.295Z,16.83
2018-12-06T08:35:27.598Z,19.43
2018-12-06T08:40:23.667Z,17.60
2018-12-06T08:45:19.820Z,18.33
2018-12-06T08:50:15.899Z,18.17
2018-12-06T08:55:12.684Z,17.50
2018-12-06T09:00:09.634Z,18.23
2018-12-06T09:05:06.069Z,17.30
2018-12-06T09:10:03.919Z,17.87
2018-12-06T09:14:59.985Z,15.60
2018-12-06T09:19:56.029Z,16.07
2018-12-06T09:24:52.897Z,17.60
2018-12-06T09:29:48.934Z,16.37
2018-12-06T09:34:45.097Z,15.90
2018-12-06T09:39:48.043Z,16.70
2018-12-06T09:44:45.611Z,16.40
2018-12-06T09:49:41.722Z,15.87
2018-12-06T09:54:43.118Z,15.93
2018-12-06T09:59:39.341Z,17.67
2018-12-06T10:04:35.396Z,16.63
2018-12-06T10:09:31.434Z,17.30
2018-12-06T10:14:27.472Z,15.07
2018-12-06T10:19:23.606Z,15.20
2018-12-06T10:24:21.915Z,15.93
2018-12-06T10:29:18.650Z,16.57
2018-12-06T10:34:14.693Z,17.70
2018-12-06T10:39:10.736Z,17.53
2018-12-06T10:44:06.813Z,21.13
2018-12-06T10:49:02.853Z,20.00
2018-12-06T10:54:01.362Z,19.13
2018-12-06T10:58:57.488Z,19.70
2018-12-06T11:03:56.505Z,17.33
2018-12-06T11:08:52.566Z,17.67
2018-12-06T11:13:48.605Z,17.73
2018-12-06T11:18:44.663Z,17.47
2018-12-06T11:24:16.636Z,16.67
2018-12-06T11:29:12.817Z,18.63
2018-12-06T11:34:08.964Z,16.40
2018-12-06T11:39:06.330Z,17.90
2018-12-06T11:44:02.504Z,18.53
2018-12-06T11:48:58.537Z,20.37
2018-12-06T11:53:54.570Z,21.00
2018-12-06T11:58:50.631Z,21.13
2018-12-06T12:03:46.722Z,20.77
2018-12-06T12:08:42.797Z,20.67
2018-12-06T12:13:38.858Z,18.77
2018-12-06T12:18:34.932Z,23.67
2018-12-06T12:23:31.023Z,21.20
2018-12-06T12:28:27.079Z,22.70
2018-12-06T12:33:23.131Z,21.23
2018-12-06T12:38:19.306Z,22.53
2018-12-06T12:43:15.353Z,23.80
2018-12-06T12:48:11.390Z,23.87
2018-12-06T12:53:07.450Z,19.77
2018-12-06T12:58:03.467Z,24.53
2018-12-06T13:02:59.613Z,25.40
2018-12-06T13:07:55.679Z,24.53
2018-12-06T13:12:51.841Z,24.20
2018-12-06T13:17:48.865Z,17.97
2018-12-06T13:22:45.554Z,20.30
2018-12-06T13:27:44.334Z,26.43
2018-12-06T13:32:40.987Z,24.07
2018-12-06T13:37:39.975Z,22.67
2018-12-06T13:42:37.987Z,20.63
2018-12-06T13:47:34.821Z,19.40
2018-12-06T13:52:31.666Z,20.27
2018-12-06T13:57:29.127Z,23.30
2018-12-06T14:02:26.772Z,21.03
2018-12-06T14:07:23.562Z,21.97
2018-12-06T14:12:20.270Z,22.57
2018-12-06T14:17:19.332Z,25.57
2018-12-06T14:22:16.019Z,25.20
2018-12-06T14:27:12.926Z,20.73
2018-12-06T14:32:10.147Z,27.23
2018-12-06T14:37:07.344Z,25.33
2018-12-06T14:42:07.246Z,26.33
2018-12-06T14:47:04.139Z,26.77
2018-12-06T14:52:01.018Z,27.70
2018-12-06T14:56:58.134Z,29.80
2018-12-06T15:01:55.011Z,31.20
2018-12-06T15:06:54.044Z,26.70
2018-12-06T15:11:51.941Z,32.27
2018-12-06T15:16:49.495Z,30.37
2018-12-06T15:21:46.408Z,31.10
2018-12-06T15:26:43.623Z,30.47
2018-12-06T15:31:45.605Z,29.43
2018-12-06T15:36:43.219Z,27.40
2018-12-06T15:41:40.983Z,26.23
2018-12-06T15:46:38.129Z,22.90
2018-12-06T15:51:34.715Z,22.50
2018-12-06T15:56:31.583Z,22.93
2018-12-06T16:01:28.050Z,23.13
2018-12-06T16:06:25.082Z,22.00
2018-12-06T16:11:21.374Z,21.47
2018-12-06T16:16:18.045Z,20.20
2018-12-06T16:21:14.453Z,20.37
2018-12-06T16:26:16.933Z,19.90
2018-12-06T16:31:13.677Z,18.43
2018-12-06T16:36:10.794Z,19.63
2018-12-06T16:41:08.644Z,18.53
2018-12-06T16:46:05.366Z,17.77
2018-12-06T16:51:01.645Z,18.67
2018-12-06T16:55:57.878Z,18.00
2018-12-06T17:00:55.093Z,17.00
2018-12-06T17:05:52.569Z,17.03
2018-12-06T17:10:49.326Z,16.43
2018-12-06T17:15:46.271Z,15.87
2018-12-06T17:20:46.827Z,16.50
2018-12-06T17:25:43.572Z,16.53
2018-12-06T17:30:41.149Z,17.60
2018-12-06T17:35:38.899Z,20.33
2018-12-06T17:40:37.215Z,16.63
2018-12-06T17:45:34.022Z,17.07
2018-12-06T17:50:32.217Z,16.27
2018-12-06T17:55:34.425Z,17.20
2018-12-06T18:00:30.986Z,17.13
2018-12-06T18:05:31.760Z,17.53
2018-12-06T18:10:28.685Z,17.37
2018-12-06T18:15:26.181Z,17.37
2018-12-06T18:20:23.521Z,17.10
2018-12-06T18:25:21.072Z,14.57
2018-12-06T18:30:18.236Z,10.60
2018-12-06T18:35:14.838Z,15.97
2018-12-06T18:40:12.582Z,15.03
2018-12-06T18:45:09.432Z,14.70
2018-12-06T18:50:06.899Z,14.93
2018-12-06T18:55:06.476Z,15.20
2018-12-06T19:00:04.551Z,13.70
2018-12-06T19:05:01.342Z,12.60
2018-12-06T19:09:58.105Z,16.70
2018-12-06T19:14:55.854Z,14.60
2018-12-06T19:19:52.760Z,15.80
2018-12-06T19:24:49.603Z,15.00
2018-12-06T19:29:46.361Z,15.60
2018-12-06T19:34:43.564Z,16.20
2018-12-06T19:39:46.411Z,15.50
2018-12-06T19:44:43.862Z,15.70
2018-12-06T19:49:40.899Z,16.13
2018-12-06T19:54:37.674Z,14.03
2018-12-06T19:59:35.392Z,16.70
2018-12-06T20:04:32.376Z,18.37
2018-12-06T20:09:30.067Z,14.80
2018-12-06T20:14:26.967Z,16.07
2018-12-06T20:19:24.662Z,18.80
2018-12-06T20:24:22.611Z,16.40
2018-12-06T20:29:19.532Z,16.97
2018-12-06T20:34:16.897Z,16.77
2018-12-06T20:39:12.997Z,19.87
2018-12-06T20:44:08.998Z,18.03
2018-12-06T20:49:05.051Z,17.90
2018-12-06T20:54:02.640Z,19.17
2018-12-06T20:58:58.706Z,15.03
2018-12-06T21:03:54.713Z,18.23
2018-12-06T21:08:50.724Z,17.87
2018-12-06T21:13:46.737Z,16.80
2018-12-06T21:18:42.830Z,16.93
2018-12-06T21:23:38.834Z,17.37
2018-12-06T21:28:34.860Z,9.97
2018-12-06T21:33:30.889Z,16.57
2018-12-06T21:38:26.897Z,18.03
2018-12-06T21:43:22.920Z,18.43
2018-12-06T21:48:18.927Z,16.67
2018-12-06T21:53:14.933Z,20.77
2018-12-06T21:58:11.059Z,19.33
2018-12-06T22:03:07.067Z,20.77
2018-12-06T22:08:07.254Z,19.40
2018-12-06T22:13:05.764Z,20.93
2018-12-06T22:18:02.846Z,24.67
2018-12-06T22:23:01.196Z,20.90
2018-12-06T22:27:58.493Z,20.40
2018-12-06T22:32:54.575Z,24.70
2018-12-06T22:37:50.683Z,24.23
2018-12-06T22:42:46.682Z,26.97
2018-12-06T22:47:42.709Z,13.87
2018-12-06T22:52:38.726Z,23.70
2018-12-06T22:57:34.743Z,20.77
2018-12-06T23:02:30.762Z,23.70
2018-12-06T23:07:26.790Z,17.27
2018-12-06T23:12:22.804Z,19.60
2018-12-06T23:17:18.842Z,26.33
2018-12-06T23:22:15.890Z,21.37
2018-12-06T23:27:13.400Z,27.53
2018-12-06T23:32:11.369Z,20.43
2018-12-06T23:37:07.768Z,23.97
2018-12-06T23:42:04.465Z,19.17
2018-12-06T23:47:00.529Z,17.13
2018-12-06T23:51:56.534Z,18.67
2018-12-06T23:56:54.561Z,13.63
